sensor_id;sensor_type;location;lat;lon;timestamp;pressure;altitude;pressure_sealevel;temperature;humidity
32492;BME280;20605;49.742;18.802;2022-09-03T00:01:53;97957.56;;;9.20;100.00
32492;BME280;20605;49.742;18.802;2022-09-03T00:04:27;97956.48;;;9.11;100.00
32492;BME280;20605;49.742;18.802;2022-09-03T00:07:05;97951.91;;;9.04;100.00
32492;BME280;20605;49.742;18.802;2022-09-03T00:09:37;97964.86;;;9.06;100.00
32492;BME280;20605;49.742;18.802;2022-09-03T00:12:11;97960.97;;;9.06;100.00
32492;BME280;20605;49.742;18.802;2022-09-03T00:17:39;97963.35;;;9.13;100.00
32492;BME280;20605;49.742;18.802;2022-09-03T00:22:52;97958.16;;;9.13;100.00
32492;BME280;20605;49.742;18.802;2022-09-03T00:25:28;97950.20;;;9.03;100.00
32492;BME280;20605;49.742;18.802;2022-09-03T00:28:04;97952.42;;;9.01;100.00
32492;BME280;20605;49.742;18.802;2022-09-03T00:30:40;97958.09;;;8.99;100.00
32492;BME280;20605;49.742;18.802;2022-09-03T00:33:13;97953.55;;;8.89;100.00
32492;BME280;20605;49.742;18.802;2022-09-03T00:35:50;97929.87;;;8.64;100.00
32492;BME280;20605;49.742;18.802;2022-09-03T00:38:21;97929.87;;;8.64;100.00
32492;BME280;20605;49.742;18.802;2022-09-03T00:44:06;97947.09;;;8.68;100.00
32492;BME280;20605;49.742;18.802;2022-09-03T00:46:53;97942.81;;;8.66;100.00
32492;BME280;20605;49.742;18.802;2022-09-03T01:00:48;97931.43;;;8.52;100.00
32492;BME280;20605;49.742;18.802;2022-09-03T01:03:25;97930.09;;;8.54;100.00
32492;BME280;20605;49.742;18.802;2022-09-03T01:06:16;97930.48;;;8.56;100.00
32492;BME280;20605;49.742;18.802;2022-09-03T01:14:54;97933.93;;;8.57;100.00
32492;BME280;20605;49.742;18.802;2022-09-03T01:18:00;97938.33;;;8.53;100.00
32492;BME280;20605;49.742;18.802;2022-09-03T01:32:18;97947.73;;;8.38;100.00
32492;BME280;20605;49.742;18.802;2022-09-03T01:35:10;97951.16;;;8.40;100.00
32492;BME280;20605;49.742;18.802;2022-09-03T01:37:50;97950.77;;;8.37;100.00
32492;BME280;20605;49.742;18.802;2022-09-03T01:40:32;97946.94;;;8.34;100.00
32492;BME280;20605;49.742;18.802;2022-09-03T01:43:20;97950.77;;;8.37;100.00
32492;BME280;20605;49.742;18.802;2022-09-03T01:46:00;97949.89;;;8.38;100.00
32492;BME280;20605;49.742;18.802;2022-09-03T01:49:04;97958.50;;;8.40;100.00
32492;BME280;20605;49.742;18.802;2022-09-03T01:51:35;97953.84;;;8.35;100.00
32492;BME280;20605;49.742;18.802;2022-09-03T02:00:10;97950.61;;;8.23;100.00
32492;BME280;20605;49.742;18.802;2022-09-03T02:02:47;97952.02;;;8.16;100.00
32492;BME280;20605;49.742;18.802;2022-09-03T02:07:55;97956.00;;;8.12;100.00
32492;BME280;20605;49.742;18.802;2022-09-03T02:13:07;97951.70;;;8.11;100.00
32492;BME280;20605;49.742;18.802;2022-09-03T02:15:41;97953.91;;;8.08;100.00
32492;BME280;20605;49.742;18.802;2022-09-03T02:18:23;97953.91;;;8.08;100.00
32492;BME280;20605;49.742;18.802;2022-09-03T02:20:49;97956.54;;;8.07;100.00
32492;BME280;20605;49.742;18.802;2022-09-03T02:23:21;97958.59;;;8.12;100.00
32492;BME280;20605;49.742;18.802;2022-09-03T02:25:53;97956.00;;;8.12;100.00
32492;BME280;20605;49.742;18.802;2022-09-03T02:28:27;97955.66;;;8.08;100.00
32492;BME280;20605;49.742;18.802;2022-09-03T02:30:54;97961.20;;;8.12;100.00
32492;BME280;20605;49.742;18.802;2022-09-03T02:33:22;97956.89;;;8.11;100.00
32492;BME280;20605;49.742;18.802;2022-09-03T02:35:48;97967.77;;;8.07;100.00
32492;BME280;20605;49.742;18.802;2022-09-03T02:38:22;97961.34;;;8.04;100.00
32492;BME280;20605;49.742;18.802;2022-09-03T02:40:52;97959.98;;;8.07;100.00
32492;BME280;20605;49.742;18.802;2022-09-03T02:43:22;97964.23;;;8.11;100.00
32492;BME280;20605;49.742;18.802;2022-09-03T02:45:58;97964.59;;;8.15;100.00
32492;BME280;20605;49.742;18.802;2022-09-03T02:48:26;97969.92;;;8.08;100.00
32492;BME280;20605;49.742;18.802;2022-09-03T02:50:53;97960.78;;;8.11;100.00
32492;BME280;20605;49.742;18.802;2022-09-03T02:53:20;97959.52;;;8.09;100.00
32492;BME280;20605;49.742;18.802;2022-09-03T02:55:46;97955.66;;;8.08;100.00
32492;BME280;20605;49.742;18.802;2022-09-03T02:58:13;97955.18;;;8.10;100.00
32492;BME280;20605;49.742;18.802;2022-09-03T03:00:40;97952.61;;;8.08;100.00
32492;BME280;20605;49.742;18.802;2022-09-03T03:03:07;97956.13;;;8.06;100.00
32492;BME280;20605;49.742;18.802;2022-09-03T03:05:48;97954.86;;;8.04;100.00
32492;BME280;20605;49.742;18.802;2022-09-03T03:08:18;97954.83;;;8.06;100.00
32492;BME280;20605;49.742;18.802;2022-09-03T03:10:50;97959.92;;;8.10;100.00
32492;BME280;20605;49.742;18.802;2022-09-03T03:13:17;97955.27;;;8.05;100.00
32492;BME280;20605;49.742;18.802;2022-09-03T03:15:44;97955.83;;;7.99;100.00
32492;BME280;20605;49.742;18.802;2022-09-03T03:18:12;97955.09;;;7.92;100.00
32492;BME280;20605;49.742;18.802;2022-09-03T03:20:40;97953.91;;;7.86;100.00
32492;BME280;20605;49.742;18.802;2022-09-03T03:23:07;97953.63;;;7.79;100.00
32492;BME280;20605;49.742;18.802;2022-09-03T03:25:37;97951.04;;;7.79;100.00
32492;BME280;20605;49.742;18.802;2022-09-03T03:28:05;97954.12;;;7.75;100.00
32492;BME280;20605;49.742;18.802;2022-09-03T03:30:32;97948.09;;;7.75;100.00
32492;BME280;20605;49.742;18.802;2022-09-03T03:32:59;97942.84;;;7.78;100.00
32492;BME280;20605;49.742;18.802;2022-09-03T03:35:26;97944.14;;;7.78;100.00
32492;BME280;20605;49.742;18.802;2022-09-03T03:37:56;97945.00;;;7.78;100.00
32492;BME280;20605;49.742;18.802;2022-09-03T03:40:24;97941.08;;;7.80;100.00
32492;BME280;20605;49.742;18.802;2022-09-03T03:42:51;97946.06;;;7.89;100.00
32492;BME280;20605;49.742;18.802;2022-09-03T03:45:18;97952.82;;;7.98;100.00
32492;BME280;20605;49.742;18.802;2022-09-03T03:47:45;97944.54;;;8.01;100.00
32492;BME280;20605;49.742;18.802;2022-09-03T03:50:11;97950.08;;;8.05;100.00
32492;BME280;20605;49.742;18.802;2022-09-03T03:52:38;97953.09;;;8.06;100.00
32492;BME280;20605;49.742;18.802;2022-09-03T03:55:05;97950.17;;;8.01;100.00
32492;BME280;20605;49.742;18.802;2022-09-03T03:57:32;97961.40;;;8.01;100.00
32492;BME280;20605;49.742;18.802;2022-09-03T03:59:59;97958.83;;;8.00;100.00
32492;BME280;20605;49.742;18.802;2022-09-03T04:02:25;97961.37;;;8.03;100.00
32492;BME280;20605;49.742;18.802;2022-09-03T04:04:52;97970.77;;;8.08;100.00
32492;BME280;20605;49.742;18.802;2022-09-03T04:07:19;97963.47;;;8.06;100.00
32492;BME280;20605;49.742;18.802;2022-09-03T04:09:46;97972.02;;;8.11;100.00
32492;BME280;20605;49.742;18.802;2022-09-03T04:12:14;97974.58;;;8.13;100.00
32492;BME280;20605;49.742;18.802;2022-09-03T04:14:41;97969.42;;;8.11;100.00
32492;BME280;20605;49.742;18.802;2022-09-03T04:17:07;97967.65;;;8.13;100.00
32492;BME280;20605;49.742;18.802;2022-09-03T04:19:34;97976.64;;;8.18;100.00
32492;BME280;20605;49.742;18.802;2022-09-03T04:22:01;97979.15;;;8.23;100.00
32492;BME280;20605;49.742;18.802;2022-09-03T04:24:28;97984.72;;;8.25;100.00
32492;BME280;20605;49.742;18.802;2022-09-03T04:26:55;97978.80;;;8.18;100.00
32492;BME280;20605;49.742;18.802;2022-09-03T04:29:21;97983.05;;;8.23;100.00
32492;BME280;20605;49.742;18.802;2022-09-03T04:31:48;97986.40;;;8.28;100.00
32492;BME280;20605;49.742;18.802;2022-09-03T04:34:33;97985.02;;;8.32;100.00
32492;BME280;20605;49.742;18.802;2022-09-03T04:37:00;97968.20;;;8.29;100.00
32492;BME280;20605;49.742;18.802;2022-09-03T04:39:26;97978.84;;;8.39;100.00
32492;BME280;20605;49.742;18.802;2022-09-03T04:41:53;97977.45;;;8.44;100.00
32492;BME280;20605;49.742;18.802;2022-09-03T04:44:20;97978.56;;;8.53;100.00
32492;BME280;20605;49.742;18.802;2022-09-03T04:46:46;97985.88;;;8.55;100.00
32492;BME280;20605;49.742;18.802;2022-09-03T04:49:13;97985.31;;;8.62;100.00
32492;BME280;20605;49.742;18.802;2022-09-03T04:51:39;97988.25;;;8.66;100.00
32492;BME280;20605;49.742;18.802;2022-09-03T04:54:06;97980.55;;;8.82;100.00
32492;BME280;20605;49.742;18.802;2022-09-03T04:56:35;97980.55;;;8.82;100.00
32492;BME280;20605;49.742;18.802;2022-09-03T04:59:04;97981.61;;;8.93;100.00
32492;BME280;20605;49.742;18.802;2022-09-03T05:01:35;97986.50;;;9.06;100.00
32492;BME280;20605;49.742;18.802;2022-09-03T05:04:03;97981.41;;;9.20;100.00
32492;BME280;20605;49.742;18.802;2022-09-03T05:06:32;97987.24;;;9.47;100.00
32492;BME280;20605;49.742;18.802;2022-09-03T05:08:59;97978.97;;;10.16;100.00
32492;BME280;20605;49.742;18.802;2022-09-03T05:11:27;97975.54;;;11.18;100.00
32492;BME280;20605;49.742;18.802;2022-09-03T05:13:56;97976.04;;;12.20;100.00
32492;BME280;20605;49.742;18.802;2022-09-03T05:16:25;97975.27;;;13.10;100.00
32492;BME280;20605;49.742;18.802;2022-09-03T05:18:54;97978.34;;;13.43;100.00
32492;BME280;20605;49.742;18.802;2022-09-03T05:21:22;97979.73;;;13.84;100.00
32492;BME280;20605;49.742;18.802;2022-09-03T05:23:50;97980.55;;;14.55;100.00
32492;BME280;20605;49.742;18.802;2022-09-03T05:26:23;97987.63;;;15.47;100.00
32492;BME280;20605;49.742;18.802;2022-09-03T05:28:56;97976.60;;;16.36;100.00
32492;BME280;20605;49.742;18.802;2022-09-03T05:31:28;97971.69;;;17.18;100.00
32492;BME280;20605;49.742;18.802;2022-09-03T05:33:58;97969.03;;;17.88;100.00
32492;BME280;20605;49.742;18.802;2022-09-03T05:36:29;97969.44;;;18.62;100.00
32492;BME280;20605;49.742;18.802;2022-09-03T05:38:58;97967.00;;;19.29;100.00
32492;BME280;20605;49.742;18.802;2022-09-03T05:41:25;97965.43;;;19.73;100.00
32492;BME280;20605;49.742;18.802;2022-09-03T05:43:54;97969.83;;;19.60;100.00
32492;BME280;20605;49.742;18.802;2022-09-03T05:46:28;97970.07;;;19.69;100.00
32492;BME280;20605;49.742;18.802;2022-09-03T05:49:02;97979.56;;;19.99;100.00
32492;BME280;20605;49.742;18.802;2022-09-03T05:51:31;97974.84;;;20.49;100.00
32492;BME280;20605;49.742;18.802;2022-09-03T05:53:58;97971.98;;;21.27;100.00
32492;BME280;20605;49.742;18.802;2022-09-03T05:56:26;97972.96;;;21.73;100.00
32492;BME280;20605;49.742;18.802;2022-09-03T05:58:56;97964.58;;;22.20;99.50
32492;BME280;20605;49.742;18.802;2022-09-03T06:01:28;97971.93;;;22.80;98.45
32492;BME280;20605;49.742;18.802;2022-09-03T06:04:09;97973.22;;;23.30;94.95
32492;BME280;20605;49.742;18.802;2022-09-03T06:06:35;97969.61;;;23.74;93.52
32492;BME280;20605;49.742;18.802;2022-09-03T06:09:08;97968.11;;;24.39;93.01
32492;BME280;20605;49.742;18.802;2022-09-03T06:11:37;97961.13;;;25.24;90.08
32492;BME280;20605;49.742;18.802;2022-09-03T06:14:07;97957.47;;;25.75;87.92
32492;BME280;20605;49.742;18.802;2022-09-03T06:16:37;97949.06;;;26.22;84.42
32492;BME280;20605;49.742;18.802;2022-09-03T06:19:06;97951.79;;;26.46;82.74
32492;BME280;20605;49.742;18.802;2022-09-03T06:21:36;97948.75;;;27.01;82.17
32492;BME280;20605;49.742;18.802;2022-09-03T06:24:05;97944.48;;;27.67;80.07
32492;BME280;20605;49.742;18.802;2022-09-03T06:26:31;97948.53;;;28.07;77.40
32492;BME280;20605;49.742;18.802;2022-09-03T06:28:58;97945.29;;;28.69;76.35
32492;BME280;20605;49.742;18.802;2022-09-03T06:31:25;97959.34;;;29.27;73.84
32492;BME280;20605;49.742;18.802;2022-09-03T06:33:52;97963.37;;;29.73;72.51
32492;BME280;20605;49.742;18.802;2022-09-03T06:36:21;97961.90;;;30.11;70.25
32492;BME280;20605;49.742;18.802;2022-09-03T06:38:54;97963.67;;;30.92;67.23
32492;BME280;20605;49.742;18.802;2022-09-03T06:41:24;97963.67;;;30.92;67.23
32492;BME280;20605;49.742;18.802;2022-09-03T06:43:54;97959.78;;;31.02;66.22
32492;BME280;20605;49.742;18.802;2022-09-03T06:46:31;97961.63;;;31.41;65.70
32492;BME280;20605;49.742;18.802;2022-09-03T06:49:00;97967.39;;;32.19;64.07
32492;BME280;20605;49.742;18.802;2022-09-03T06:51:28;97963.82;;;32.60;62.29
32492;BME280;20605;49.742;18.802;2022-09-03T06:54:04;97963.47;;;33.11;61.60
32492;BME280;20605;49.742;18.802;2022-09-03T06:56:34;97963.70;;;33.60;60.05
32492;BME280;20605;49.742;18.802;2022-09-03T06:59:12;97953.83;;;34.21;58.72
32492;BME280;20605;49.742;18.802;2022-09-03T07:01:40;97952.31;;;34.61;57.35
32492;BME280;20605;49.742;18.802;2022-09-03T07:04:09;97947.42;;;34.88;55.58
32492;BME280;20605;49.742;18.802;2022-09-03T07:06:38;97952.01;;;35.12;54.96
32492;BME280;20605;49.742;18.802;2022-09-03T07:09:08;97950.80;;;35.38;52.65
32492;BME280;20605;49.742;18.802;2022-09-03T07:11:36;97944.42;;;35.59;52.96
32492;BME280;20605;49.742;18.802;2022-09-03T07:14:16;97940.61;;;36.21;52.16
32492;BME280;20605;49.742;18.802;2022-09-03T07:16:45;97941.02;;;36.57;50.83
32492;BME280;20605;49.742;18.802;2022-09-03T07:19:13;97941.30;;;36.91;49.79
32492;BME280;20605;49.742;18.802;2022-09-03T07:21:42;97943.41;;;37.32;48.42
32492;BME280;20605;49.742;18.802;2022-09-03T07:24:09;97937.63;;;37.60;46.84
32492;BME280;20605;49.742;18.802;2022-09-03T07:26:38;97943.63;;;37.52;47.33
32492;BME280;20605;49.742;18.802;2022-09-03T07:29:06;97939.52;;;37.59;45.19
32492;BME280;20605;49.742;18.802;2022-09-03T07:31:35;97938.00;;;37.25;45.54
32492;BME280;20605;49.742;18.802;2022-09-03T07:34:06;97939.77;;;37.29;44.65
32492;BME280;20605;49.742;18.802;2022-09-03T07:36:40;97938.69;;;37.59;43.60
32492;BME280;20605;49.742;18.802;2022-09-03T07:39:09;97941.60;;;37.79;44.50
32492;BME280;20605;49.742;18.802;2022-09-03T07:41:37;97938.20;;;38.22;42.70
32492;BME280;20605;49.742;18.802;2022-09-03T07:44:04;97944.17;;;38.22;42.84
32492;BME280;20605;49.742;18.802;2022-09-03T07:46:32;97944.70;;;38.21;41.59
32492;BME280;20605;49.742;18.802;2022-09-03T07:49:02;97950.48;;;37.62;41.37
32492;BME280;20605;49.742;18.802;2022-09-03T07:51:33;97945.88;;;37.62;41.80
32492;BME280;20605;49.742;18.802;2022-09-03T07:54:02;97950.41;;;37.75;41.65
32492;BME280;20605;49.742;18.802;2022-09-03T07:56:32;97951.13;;;37.95;41.40
32492;BME280;20605;49.742;18.802;2022-09-03T07:59:00;97952.64;;;38.23;40.93
32492;BME280;20605;49.742;18.802;2022-09-03T08:01:29;97950.86;;;38.03;40.99
32492;BME280;20605;49.742;18.802;2022-09-03T08:03:57;97944.05;;;37.72;40.59
32492;BME280;20605;49.742;18.802;2022-09-03T08:06:27;97942.27;;;37.52;39.98
32492;BME280;20605;49.742;18.802;2022-09-03T08:08:55;97932.70;;;37.43;40.31
32492;BME280;20605;49.742;18.802;2022-09-03T08:11:24;97938.81;;;37.54;39.57
32492;BME280;20605;49.742;18.802;2022-09-03T08:13:57;97940.80;;;37.72;39.32
32492;BME280;20605;49.742;18.802;2022-09-03T08:16:36;97934.23;;;37.26;39.65
32492;BME280;20605;49.742;18.802;2022-09-03T08:19:04;97939.68;;;37.13;39.54
32492;BME280;20605;49.742;18.802;2022-09-03T08:21:30;97935.27;;;36.83;39.30
32492;BME280;20605;49.742;18.802;2022-09-03T08:23:58;97935.81;;;36.49;40.26
32492;BME280;20605;49.742;18.802;2022-09-03T08:26:29;97942.17;;;36.79;40.51
32492;BME280;20605;49.742;18.802;2022-09-03T08:28:57;97937.94;;;37.03;39.13
32492;BME280;20605;49.742;18.802;2022-09-03T08:31:24;97938.79;;;36.97;39.75
32492;BME280;20605;49.742;18.802;2022-09-03T08:33:57;97941.34;;;37.14;39.44
32492;BME280;20605;49.742;18.802;2022-09-03T08:36:30;97940.33;;;37.44;39.78
32492;BME280;20605;49.742;18.802;2022-09-03T08:39:00;97940.42;;;37.84;38.86
32492;BME280;20605;49.742;18.802;2022-09-03T08:44:46;97945.80;;;37.75;37.55
32492;BME280;20605;49.742;18.802;2022-09-03T08:50:35;97942.19;;;37.14;38.87
32492;BME280;20605;49.742;18.802;2022-09-03T08:53:11;97944.38;;;37.15;38.88
32492;BME280;20605;49.742;18.802;2022-09-03T08:58:34;97944.77;;;37.32;39.35
32492;BME280;20605;49.742;18.802;2022-09-03T09:01:17;97946.25;;;37.50;39.28
32492;BME280;20605;49.742;18.802;2022-09-03T09:07:08;97935.08;;;37.49;38.88
32492;BME280;20605;49.742;18.802;2022-09-03T09:12:36;97937.03;;;37.73;38.67
32492;BME280;20605;49.742;18.802;2022-09-03T09:21:21;97931.27;;;38.26;38.65
32492;BME280;20605;49.742;18.802;2022-09-03T09:23:47;97939.00;;;38.13;37.40
32492;BME280;20605;49.742;18.802;2022-09-03T09:26:17;97939.48;;;37.43;37.50
32492;BME280;20605;49.742;18.802;2022-09-03T09:28:52;97932.55;;;36.83;37.95
32492;BME280;20605;49.742;18.802;2022-09-03T09:31:17;97933.92;;;36.56;37.99
32492;BME280;20605;49.742;18.802;2022-09-03T09:33:45;97933.70;;;35.92;38.48
32492;BME280;20605;49.742;18.802;2022-09-03T09:36:14;97939.45;;;35.39;38.58
32492;BME280;20605;49.742;18.802;2022-09-03T09:38:45;97939.12;;;34.79;39.17
32492;BME280;20605;49.742;18.802;2022-09-03T09:41:20;97942.44;;;34.36;40.36
32492;BME280;20605;49.742;18.802;2022-09-03T09:44:00;97940.56;;;34.26;40.58
32492;BME280;20605;49.742;18.802;2022-09-03T09:46:36;97939.61;;;33.91;40.72
32492;BME280;20605;49.742;18.802;2022-09-03T09:52:14;97928.78;;;32.22;42.16
32492;BME280;20605;49.742;18.802;2022-09-03T09:54:43;97931.72;;;30.97;44.33
32492;BME280;20605;49.742;18.802;2022-09-03T09:57:15;97950.66;;;30.07;45.65
32492;BME280;20605;49.742;18.802;2022-09-03T09:59:44;97943.70;;;29.14;46.92
32492;BME280;20605;49.742;18.802;2022-09-03T10:02:13;97949.41;;;28.11;49.17
32492;BME280;20605;49.742;18.802;2022-09-03T10:05:00;97943.60;;;27.17;51.00
32492;BME280;20605;49.742;18.802;2022-09-03T10:07:30;97944.55;;;26.42;52.26
32492;BME280;20605;49.742;18.802;2022-09-03T10:15:22;97950.65;;;24.62;56.43
32492;BME280;20605;49.742;18.802;2022-09-03T10:21:19;97959.13;;;23.50;59.41
32492;BME280;20605;49.742;18.802;2022-09-03T10:23:52;97960.47;;;22.85;61.14
32492;BME280;20605;49.742;18.802;2022-09-03T10:26:39;97957.27;;;22.46;62.38
32492;BME280;20605;49.742;18.802;2022-09-03T10:29:07;97948.89;;;22.17;63.31
32492;BME280;20605;49.742;18.802;2022-09-03T10:34:50;97945.14;;;22.03;65.82
32492;BME280;20605;49.742;18.802;2022-09-03T10:37:48;97939.29;;;21.92;66.52
32492;BME280;20605;49.742;18.802;2022-09-03T10:40:19;97943.00;;;21.84;66.52
32492;BME280;20605;49.742;18.802;2022-09-03T10:46:18;97954.92;;;21.55;68.79
32492;BME280;20605;49.742;18.802;2022-09-03T10:51:40;97938.11;;;21.43;70.16
32492;BME280;20605;49.742;18.802;2022-09-03T11:00:08;97953.39;;;21.39;71.17
32492;BME280;20605;49.742;18.802;2022-09-03T11:02:54;97936.00;;;21.17;72.06
32492;BME280;20605;49.742;18.802;2022-09-03T11:05:39;97939.27;;;21.33;72.03
32492;BME280;20605;49.742;18.802;2022-09-03T11:08:15;97935.20;;;21.40;72.76
32492;BME280;20605;49.742;18.802;2022-09-03T11:10:54;97926.72;;;21.54;73.42
32492;BME280;20605;49.742;18.802;2022-09-03T11:13:41;97913.54;;;21.70;73.96
32492;BME280;20605;49.742;18.802;2022-09-03T11:16:17;97927.19;;;21.77;74.84
32492;BME280;20605;49.742;18.802;2022-09-03T11:19:08;97928.41;;;21.84;74.25
32492;BME280;20605;49.742;18.802;2022-09-03T11:21:37;97921.57;;;21.93;73.26
32492;BME280;20605;49.742;18.802;2022-09-03T11:26:42;97923.16;;;22.01;74.51
32492;BME280;20605;49.742;18.802;2022-09-03T11:29:32;97916.40;;;21.97;75.10
32492;BME280;20605;49.742;18.802;2022-09-03T11:35:11;97913.42;;;21.72;75.88
32492;BME280;20605;49.742;18.802;2022-09-03T11:40:38;97911.66;;;21.54;75.81
32492;BME280;20605;49.742;18.802;2022-09-03T11:43:26;97910.00;;;21.59;75.30
32492;BME280;20605;49.742;18.802;2022-09-03T11:46:10;97905.68;;;21.63;75.68
32492;BME280;20605;49.742;18.802;2022-09-03T11:48:55;97912.13;;;21.77;76.13
32492;BME280;20605;49.742;18.802;2022-09-03T11:51:36;97915.64;;;21.84;75.69
32492;BME280;20605;49.742;18.802;2022-09-03T11:54:06;97908.77;;;21.87;75.50
32492;BME280;20605;49.742;18.802;2022-09-03T11:56:46;97910.12;;;21.92;75.36
32492;BME280;20605;49.742;18.802;2022-09-03T11:59:25;97909.34;;;22.03;75.78
32492;BME280;20605;49.742;18.802;2022-09-03T12:01:57;97905.37;;;22.08;75.34
32492;BME280;20605;49.742;18.802;2022-09-03T12:05:02;97902.72;;;22.08;75.67
32492;BME280;20605;49.742;18.802;2022-09-03T12:10:55;97916.80;;;22.14;76.03
32492;BME280;20605;49.742;18.802;2022-09-03T12:13:42;97913.33;;;22.08;75.21
32492;BME280;20605;49.742;18.802;2022-09-03T12:16:18;97921.03;;;22.06;75.43
32492;BME280;20605;49.742;18.802;2022-09-03T12:21:42;97910.56;;;22.32;74.99
32492;BME280;20605;49.742;18.802;2022-09-03T12:24:13;97907.44;;;22.44;74.99
32492;BME280;20605;49.742;18.802;2022-09-03T12:26:41;97906.84;;;22.46;75.09
32492;BME280;20605;49.742;18.802;2022-09-03T12:29:25;97901.89;;;22.41;74.99
32492;BME280;20605;49.742;18.802;2022-09-03T12:31:55;97891.02;;;22.28;75.06
32492;BME280;20605;49.742;18.802;2022-09-03T12:34:24;97892.35;;;22.33;75.81
32492;BME280;20605;49.742;18.802;2022-09-03T12:36:53;97894.88;;;22.35;75.92
32492;BME280;20605;49.742;18.802;2022-09-03T12:39:25;97901.05;;;22.41;76.10
32492;BME280;20605;49.742;18.802;2022-09-03T12:42:01;97897.79;;;22.49;76.27
32492;BME280;20605;49.742;18.802;2022-09-03T12:44:39;97892.00;;;22.55;76.58
32492;BME280;20605;49.742;18.802;2022-09-03T12:49:47;97892.13;;;22.92;75.65
32492;BME280;20605;49.742;18.802;2022-09-03T12:52:21;97894.28;;;22.70;75.63
32492;BME280;20605;49.742;18.802;2022-09-03T12:57:41;97886.56;;;22.39;76.19
32492;BME280;20605;49.742;18.802;2022-09-03T13:00:13;97889.08;;;22.24;76.85
32492;BME280;20605;49.742;18.802;2022-09-03T13:03:14;97881.95;;;22.13;77.31
32492;BME280;20605;49.742;18.802;2022-09-03T13:05:49;97889.69;;;22.22;76.80
32492;BME280;20605;49.742;18.802;2022-09-03T13:08:24;97891.87;;;22.34;76.18
32492;BME280;20605;49.742;18.802;2022-09-03T13:11:00;97892.84;;;22.50;76.32
32492;BME280;20605;49.742;18.802;2022-09-03T13:13:34;97886.09;;;22.45;75.93
32492;BME280;20605;49.742;18.802;2022-09-03T13:16:25;97886.32;;;22.37;75.58
32492;BME280;20605;49.742;18.802;2022-09-03T13:27:57;97891.14;;;22.37;76.71
32492;BME280;20605;49.742;18.802;2022-09-03T13:36:22;97879.63;;;21.98;77.83
32492;BME280;20605;49.742;18.802;2022-09-03T13:38:58;97881.30;;;21.88;78.50
32492;BME280;20605;49.742;18.802;2022-09-03T13:41:38;97886.56;;;21.76;78.98
32492;BME280;20605;49.742;18.802;2022-09-03T13:47:17;97892.66;;;21.60;78.77
32492;BME280;20605;49.742;18.802;2022-09-03T13:50:18;97889.45;;;21.44;78.61
32492;BME280;20605;49.742;18.802;2022-09-03T13:53:08;97888.67;;;21.31;78.97
32492;BME280;20605;49.742;18.802;2022-09-03T13:58:26;97886.57;;;21.05;80.53
32492;BME280;20605;49.742;18.802;2022-09-03T14:03:48;97879.91;;;20.99;80.98
32492;BME280;20605;49.742;18.802;2022-09-03T14:15:23;97889.93;;;21.73;82.00
32492;BME280;20605;49.742;18.802;2022-09-03T14:26:32;97881.91;;;21.91;82.08
32492;BME280;20605;49.742;18.802;2022-09-03T14:32:04;97882.14;;;21.88;82.00
32492;BME280;20605;49.742;18.802;2022-09-03T14:34:59;97880.24;;;22.01;82.32
32492;BME280;20605;49.742;18.802;2022-09-03T14:40:21;97870.04;;;22.08;82.25
32492;BME280;20605;49.742;18.802;2022-09-03T14:43:24;97879.31;;;22.02;81.66
32492;BME280;20605;49.742;18.802;2022-09-03T14:46:16;97873.83;;;21.93;81.57
32492;BME280;20605;49.742;18.802;2022-09-03T15:09:34;97847.39;;;21.74;82.21
32492;BME280;20605;49.742;18.802;2022-09-03T15:12:15;97841.47;;;21.65;82.12
32492;BME280;20605;49.742;18.802;2022-09-03T15:14:57;97840.98;;;21.66;82.26
32492;BME280;20605;49.742;18.802;2022-09-03T15:20:28;97843.73;;;21.59;82.19
32492;BME280;20605;49.742;18.802;2022-09-03T15:23:19;97851.44;;;21.56;82.26
32492;BME280;20605;49.742;18.802;2022-09-03T15:32:08;97845.52;;;21.53;82.66
32492;BME280;20605;49.742;18.802;2022-09-03T15:40:30;97845.32;;;21.32;84.27
32492;BME280;20605;49.742;18.802;2022-09-03T15:43:10;97852.28;;;21.27;84.63
32492;BME280;20605;49.742;18.802;2022-09-03T15:45:51;97844.11;;;21.30;84.94
32492;BME280;20605;49.742;18.802;2022-09-03T15:54:11;97850.98;;;21.14;85.76
32492;BME280;20605;49.742;18.802;2022-09-03T16:02:16;97850.20;;;21.01;86.82
32492;BME280;20605;49.742;18.802;2022-09-03T16:05:04;97851.97;;;20.95;87.29
32492;BME280;20605;49.742;18.802;2022-09-03T16:07:47;97858.66;;;20.88;87.19
32492;BME280;20605;49.742;18.802;2022-09-03T16:10:18;97855.98;;;20.77;87.25
32492;BME280;20605;49.742;18.802;2022-09-03T16:13:08;97858.95;;;20.72;88.30
32492;BME280;20605;49.742;18.802;2022-09-03T16:15:59;97854.17;;;20.59;87.97
32492;BME280;20605;49.742;18.802;2022-09-03T16:18:38;97860.72;;;20.66;88.01
32492;BME280;20605;49.742;18.802;2022-09-03T16:22:04;97860.32;;;20.83;87.58
32492;BME280;20605;49.742;18.802;2022-09-03T16:24:14;97856.78;;;20.96;87.28
32492;BME280;20605;49.742;18.802;2022-09-03T16:29:24;97870.09;;;20.65;86.54
32492;BME280;20605;49.742;18.802;2022-09-03T16:35:42;97868.59;;;20.42;87.14
32492;BME280;20605;49.742;18.802;2022-09-03T16:44:20;97869.63;;;20.14;88.59
32492;BME280;20605;49.742;18.802;2022-09-03T16:46:59;97874.02;;;19.96;89.64
32492;BME280;20605;49.742;18.802;2022-09-03T16:49:45;97869.11;;;19.64;89.91
32492;BME280;20605;49.742;18.802;2022-09-03T16:55:18;97867.05;;;19.22;91.58
32492;BME280;20605;49.742;18.802;2022-09-03T16:58:10;97862.88;;;18.99;93.57
32492;BME280;20605;49.742;18.802;2022-09-03T17:09:40;97869.20;;;18.05;96.25
32492;BME280;20605;49.742;18.802;2022-09-03T17:12:24;97875.30;;;17.91;96.59
32492;BME280;20605;49.742;18.802;2022-09-03T17:21:36;97877.52;;;17.46;98.39
32492;BME280;20605;49.742;18.802;2022-09-03T17:23:43;97886.97;;;17.35;99.13
32492;BME280;20605;49.742;18.802;2022-09-03T17:26:33;97882.11;;;17.20;99.79